sim
Sign-in with your pilot id or email,
or register
Callsign
Passwort

Schedule Details

Flight Number: OEC0718
Departure: Dresden Airport (EDDC) at Time
Arrival: Munich Airport (EDDM) at Time

Weather Information
Getting current METAR information for EDDC 221450Z 13007KT 070V160 CAVOK 26/12 Q1010 NOSIG
Getting current METAR information for EDDM 221450Z 04005KT 9999 FEW040 24/13 Q1011 NOSIG

Schedule Frequency

Route Map